Time;durP1;ratioP1;P1;durP2;ratioP2;P2;SDS_P1;SDS_P2;PMS_P1;PMS_P2;Temp;Humidity;BMP_temperature;BMP_pressure;BME280_temperature;BME280_humidity;BME280_pressure;Samples;Min_cycle;Max_cycle;Signal;HPM_P1;HPM_P2
2023/08/11 00:01:34;;;;;;;1.63;1.52;;;21.00;99.90;;;;;;5056788;28;20705;-73
2023/08/11 00:04:01;;;;;;;1.70;1.60;;;21.10;99.90;;;;;;5057139;28;20246;-73
2023/08/11 00:06:28;;;;;;;2.38;1.83;;;21.20;99.90;;;;;;5060045;28;20289;-74
2023/08/11 00:08:55;;;;;;;1.90;1.80;;;21.20;99.90;;;;;;5059277;28;20627;-74
2023/08/11 00:11:22;;;;;;;3.15;1.70;;;21.10;99.90;;;;;;5058838;28;20241;-74
2023/08/11 00:13:49;;;;;;;2.10;1.70;;;21.10;99.90;;;;;;5058223;28;20300;-73
2023/08/11 00:16:18;;;;;;;1.90;1.80;;;21.20;99.90;;;;;;5060997;28;20199;-74
2023/08/11 00:18:45;;;;;;;1.83;1.73;;;21.20;99.90;;;;;;5056116;28;20285;-74
2023/08/11 00:21:13;;;;;;;2.00;1.90;;;21.20;99.90;;;;;;5056744;28;20241;-75
2023/08/11 00:23:42;;;;;;;1.85;1.75;;;21.20;99.90;;;;;;5060220;28;20325;-74
2023/08/11 00:26:10;;;;;;;1.70;1.60;;;21.20;99.90;;;;;;5057371;28;20210;-73
2023/08/11 00:28:37;;;;;;;1.92;1.75;;;21.10;99.90;;;;;;5058796;28;20202;-75
2023/08/11 00:31:05;;;;;;;1.70;1.60;;;21.20;99.90;;;;;;5059579;28;20226;-73
2023/08/11 00:33:33;;;;;;;1.58;1.48;;;21.20;99.90;;;;;;5057301;28;20451;-74
2023/08/11 00:36:00;;;;;;;1.60;1.50;;;21.20;99.90;;;;;;5055137;28;20768;-74
2023/08/11 00:38:37;;;;;;;1.80;1.70;;;21.20;99.90;;;;;;5060480;28;20280;-73
2023/08/11 00:41:05;;;;;;;2.15;1.80;;;21.20;99.90;;;;;;5059140;28;20300;-74
2023/08/11 00:43:32;;;;;;;2.10;1.58;;;21.20;99.90;;;;;;5064912;28;20213;-73
2023/08/11 00:46:03;;;;;;;1.98;1.88;;;21.20;99.90;;;;;;5064843;28;20221;-74
2023/08/11 00:48:30;;;;;;;1.48;1.38;;;21.10;99.90;;;;;;5065317;28;20206;-73
2023/08/11 00:50:58;;;;;;;2.42;1.90;;;21.20;99.90;;;;;;5062050;28;20275;-73
2023/08/11 00:53:26;;;;;;;1.60;1.50;;;21.20;99.90;;;;;;5060756;28;20672;-73
2023/08/11 00:55:53;;;;;;;1.70;1.60;;;21.10;99.90;;;;;;5063072;28;20290;-73
2023/08/11 00:58:21;;;;;;;1.80;1.70;;;21.10;99.90;;;;;;5063164;28;20206;-73
2023/08/11 01:00:50;;;;;;;1.88;1.77;;;21.10;99.90;;;;;;5063300;28;20210;-73
2023/08/11 01:03:18;;;;;;;1.90;1.80;;;21.10;99.90;;;;;;5062253;28;20252;-73
2023/08/11 01:05:54;;;;;;;2.05;1.70;;;21.10;99.90;;;;;;5062652;28;20255;-74
2023/08/11 01:08:33;;;;;;;1.60;1.50;;;21.00;99.90;;;;;;5060620;28;20198;-73
2023/08/11 01:11:08;;;;;;;1.60;1.50;;;21.00;99.90;;;;;;5061250;28;20290;-73
2023/08/11 01:13:41;;;;;;;2.20;2.00;;;21.00;99.90;;;;;;5060610;28;20731;-73
2023/08/11 01:16:09;;;;;;;1.85;1.75;;;20.90;99.90;;;;;;5075828;28;20250;-74
2023/08/11 01:18:36;;;;;;;1.80;1.70;;;21.00;99.90;;;;;;5079259;28;20195;-73
2023/08/11 01:21:10;;;;;;;1.48;1.38;;;21.00;99.90;;;;;;5061639;28;20294;-73
2023/08/11 01:23:40;;;;;;;1.60;1.50;;;21.00;99.90;;;;;;5058456;28;20644;-74
2023/08/11 01:26:07;;;;;;;1.48;1.38;;;21.00;99.90;;;;;;5062922;28;20200;-73
2023/08/11 01:28:35;;;;;;;1.75;1.65;;;21.00;99.90;;;;;;5060666;28;20233;-74
2023/08/11 01:31:03;;;;;;;1.70;1.60;;;21.00;99.90;;;;;;5060106;28;20191;-74
2023/08/11 01:33:30;;;;;;;5.40;1.60;;;21.00;99.90;;;;;;5060408;28;20206;-74
2023/08/11 01:35:57;;;;;;;1.55;1.45;;;21.00;99.90;;;;;;5061278;28;20293;-73
2023/08/11 01:38:23;;;;;;;1.90;1.80;;;21.00;99.90;;;;;;5059288;28;20685;-73
2023/08/11 01:40:52;;;;;;;1.88;1.77;;;21.00;99.90;;;;;;5060275;28;20203;-74
2023/08/11 01:43:20;;;;;;;2.28;1.38;;;20.90;99.90;;;;;;5061442;28;20944;-73
2023/08/11 01:45:48;;;;;;;1.80;1.70;;;21.00;99.90;;;;;;5056020;28;20244;-74
2023/08/11 01:48:18;;;;;;;2.00;1.90;;;21.00;99.90;;;;;;5052491;28;20353;-75
2023/08/11 01:50:45;;;;;;;1.67;1.58;;;21.00;99.90;;;;;;5062591;28;20644;-73
2023/08/11 01:53:12;;;;;;;1.45;1.38;;;21.00;99.90;;;;;;5059470;28;20202;-73
2023/08/11 01:55:40;;;;;;;1.73;1.63;;;20.90;99.90;;;;;;5062213;28;20765;-74
2023/08/11 01:58:08;;;;;;;1.50;1.40;;;20.90;99.90;;;;;;5059606;28;20230;-74
2023/08/11 02:00:36;;;;;;;1.80;1.70;;;20.90;99.90;;;;;;5058937;28;20290;-74
2023/08/11 02:03:03;;;;;;;1.58;1.48;;;21.00;99.90;;;;;;5061494;28;20210;-74
2023/08/11 02:05:30;;;;;;;1.45;1.35;;;21.00;99.90;;;;;;5057742;28;20230;-74
2023/08/11 02:07:59;;;;;;;1.45;1.38;;;21.00;99.90;;;;;;5058434;28;20273;-74
2023/08/11 02:10:26;;;;;;;1.73;1.52;;;21.00;99.90;;;;;;5059863;28;20234;-74
2023/08/11 02:12:53;;;;;;;1.58;1.48;;;21.00;99.90;;;;;;5056673;28;20248;-74
2023/08/11 02:15:22;;;;;;;1.80;1.70;;;21.00;99.90;;;;;;5058002;28;20339;-75
2023/08/11 02:17:49;;;;;;;2.00;1.90;;;20.90;99.90;;;;;;5058331;28;20206;-73
2023/08/11 02:20:21;;;;;;;1.88;1.77;;;20.90;99.90;;;;;;5059778;28;20220;-74
2023/08/11 02:22:48;;;;;;;2.00;1.80;;;20.80;99.90;;;;;;5061813;28;20218;-74
2023/08/11 02:25:16;;;;;;;1.65;1.55;;;20.80;99.90;;;;;;5063155;28;20221;-74
2023/08/11 02:27:43;;;;;;;1.83;1.73;;;20.80;99.90;;;;;;5063940;28;20198;-74
2023/08/11 02:30:12;;;;;;;1.60;1.50;;;20.80;99.90;;;;;;5062217;28;20198;-74
2023/08/11 02:32:40;;;;;;;1.70;1.60;;;20.80;99.90;;;;;;5058077;28;20235;-74
2023/08/11 02:35:10;;;;;;;1.73;1.63;;;20.80;99.90;;;;;;5059758;28;20254;-74
2023/08/11 02:37:37;;;;;;;2.00;1.90;;;20.80;99.90;;;;;;5062508;28;20226;-75
2023/08/11 02:40:08;;;;;;;1.67;1.55;;;20.70;99.90;;;;;;5060234;28;20198;-75
2023/08/11 02:42:35;;;;;;;1.60;1.50;;;20.70;99.90;;;;;;5060031;28;20300;-74
2023/08/11 02:45:03;;;;;;;1.65;1.55;;;20.70;99.90;;;;;;5059856;28;20301;-74
2023/08/11 02:47:31;;;;;;;2.15;1.75;;;20.70;99.90;;;;;;5060577;28;20793;-74
2023/08/11 02:49:59;;;;;;;2.10;1.90;;;20.80;99.90;;;;;;5059607;28;20285;-75
2023/08/11 02:52:26;;;;;;;1.65;1.45;;;20.80;99.90;;;;;;5061910;28;20214;-74
2023/08/11 02:54:53;;;;;;;1.60;1.50;;;20.70;99.90;;;;;;5060743;28;20313;-76
2023/08/11 02:57:20;;;;;;;1.63;1.52;;;20.80;99.90;;;;;;5059973;28;20784;-75
2023/08/11 02:59:49;;;;;;;1.63;1.52;;;20.80;99.90;;;;;;5059372;28;20633;-74
2023/08/11 03:02:16;;;;;;;1.88;1.77;;;20.70;99.90;;;;;;5059860;28;20830;-74
2023/08/11 03:04:43;;;;;;;1.90;1.80;;;20.80;99.90;;;;;;5066691;28;20248;-74
2023/08/11 03:07:12;;;;;;;1.63;1.50;;;20.70;99.90;;;;;;5066069;28;20194;-73
2023/08/11 03:09:39;;;;;;;1.65;1.58;;;20.70;99.90;;;;;;5070901;28;20214;-75
2023/08/11 03:12:07;;;;;;;2.00;1.90;;;20.70;99.90;;;;;;5070064;28;20277;-73
2023/08/11 03:14:34;;;;;;;2.00;1.90;;;20.60;99.90;;;;;;5080745;28;20218;-78
2023/08/11 03:17:04;;;;;;;1.73;1.63;;;20.60;99.90;;;;;;5086694;28;20209;-74
2023/08/11 03:19:31;;;;;;;1.63;1.52;;;20.60;99.90;;;;;;5079482;28;20983;-75
2023/08/11 03:21:58;;;;;;;1.75;1.65;;;20.60;99.90;;;;;;5062374;28;20245;-74
2023/08/11 03:24:26;;;;;;;1.70;1.60;;;20.60;99.90;;;;;;5056570;28;20227;-73
2023/08/11 03:26:53;;;;;;;1.65;1.55;;;20.60;99.90;;;;;;5057119;28;20207;-73
2023/08/11 03:29:20;;;;;;;2.05;1.63;;;20.60;99.90;;;;;;5058049;28;20194;-74
2023/08/11 03:31:47;;;;;;;1.95;1.80;;;20.60;99.90;;;;;;5061148;28;20627;-75
2023/08/11 03:34:14;;;;;;;1.67;1.50;;;20.60;99.90;;;;;;5055080;28;20226;-74
2023/08/11 03:36:43;;;;;;;1.77;1.67;;;20.70;99.90;;;;;;5057960;28;20292;-74
2023/08/11 03:39:10;;;;;;;1.55;1.45;;;20.60;99.90;;;;;;5056066;28;20230;-74
2023/08/11 03:41:38;;;;;;;1.70;1.60;;;20.60;99.90;;;;;;5057457;28;20733;-74
2023/08/11 03:44:05;;;;;;;1.75;1.63;;;20.60;99.90;;;;;;5058513;28;20214;-75
2023/08/11 03:46:32;;;;;;;1.55;1.45;;;20.60;99.90;;;;;;5059643;28;20279;-73
2023/08/11 03:48:59;;;;;;;1.52;1.42;;;20.60;99.90;;;;;;5059036;28;20265;-74
2023/08/11 03:51:26;;;;;;;2.03;1.92;;;20.60;99.90;;;;;;5057492;28;20208;-74
2023/08/11 03:53:53;;;;;;;1.80;1.70;;;20.60;99.90;;;;;;5055855;28;20241;-74
2023/08/11 03:56:20;;;;;;;2.20;2.00;;;20.60;99.90;;;;;;5055710;28;20280;-75
2023/08/11 03:58:48;;;;;;;2.00;1.80;;;20.60;99.90;;;;;;5056577;28;20225;-74
2023/08/11 04:01:15;;;;;;;1.63;1.52;;;20.60;99.90;;;;;;5055481;28;20207;-74
2023/08/11 04:03:42;;;;;;;1.73;1.63;;;20.50;99.90;;;;;;5057755;28;20310;-73
2023/08/11 04:06:09;;;;;;;2.00;1.90;;;20.50;99.90;;;;;;5054883;28;20801;-73
2023/08/11 04:08:36;;;;;;;2.10;2.00;;;20.50;99.90;;;;;;5058207;28;20731;-74
2023/08/11 04:11:03;;;;;;;2.00;1.90;;;20.50;99.90;;;;;;5055789;28;20290;-74
2023/08/11 04:13:30;;;;;;;2.15;1.70;;;20.50;99.90;;;;;;5057553;28;20281;-75
2023/08/11 04:16:00;;;;;;;1.98;1.88;;;20.50;99.90;;;;;;5054324;28;20229;-74
2023/08/11 04:18:27;;;;;;;2.17;2.00;;;20.50;99.90;;;;;;5056940;28;20294;-77
2023/08/11 04:20:54;;;;;;;2.00;1.90;;;20.50;99.90;;;;;;5063600;28;20206;-74
2023/08/11 04:23:20;;;;;;;2.17;1.70;;;20.50;99.90;;;;;;5056883;28;20311;-74
2023/08/11 04:25:47;;;;;;;1.92;1.83;;;20.50;99.90;;;;;;5062363;28;20583;-74
2023/08/11 04:28:14;;;;;;;2.00;1.90;;;20.50;99.90;;;;;;5059099;28;20638;-74
2023/08/11 04:30:41;;;;;;;2.35;2.15;;;20.60;99.90;;;;;;5059872;28;20233;-73
2023/08/11 04:33:10;;;;;;;1.98;1.88;;;20.50;99.90;;;;;;5061489;28;20567;-74
2023/08/11 04:35:38;;;;;;;2.05;1.92;;;20.50;99.90;;;;;;5061669;28;20275;-73
2023/08/11 04:38:05;;;;;;;1.95;1.85;;;20.50;99.90;;;;;;5063230;28;20708;-75
2023/08/11 04:40:32;;;;;;;2.00;1.90;;;20.50;99.90;;;;;;5061714;28;20202;-74
2023/08/11 04:42:59;;;;;;;1.83;1.73;;;20.40;99.90;;;;;;5062731;28;20291;-75
2023/08/11 04:45:26;;;;;;;1.90;1.80;;;20.40;99.90;;;;;;5059623;28;20283;-74
2023/08/11 04:47:53;;;;;;;1.83;1.73;;;20.30;99.90;;;;;;5060677;28;20198;-74
2023/08/11 04:50:23;;;;;;;2.13;1.92;;;20.30;99.90;;;;;;5065590;28;20268;-73
2023/08/11 04:52:49;;;;;;;2.00;1.85;;;20.30;99.90;;;;;;5061354;28;20210;-74
2023/08/11 04:55:17;;;;;;;2.25;2.05;;;20.30;99.90;;;;;;5057640;28;20219;-73
2023/08/11 04:57:44;;;;;;;1.85;1.75;;;20.30;99.90;;;;;;5061674;28;20194;-73
2023/08/11 05:00:14;;;;;;;2.45;1.95;;;20.30;99.90;;;;;;5062860;28;20204;-74
2023/08/11 05:02:42;;;;;;;1.95;1.85;;;20.30;99.90;;;;;;5062129;28;20330;-74
2023/08/11 05:05:10;;;;;;;2.05;1.90;;;20.30;99.90;;;;;;5061067;28;20295;-74
2023/08/11 05:07:39;;;;;;;3.05;2.17;;;20.30;99.90;;;;;;5062713;28;20210;-74
2023/08/11 05:10:07;;;;;;;2.45;2.25;;;20.30;99.90;;;;;;5062377;28;20569;-74
2023/08/11 05:12:34;;;;;;;2.00;1.90;;;20.30;99.90;;;;;;5083787;28;20190;-75
2023/08/11 05:15:03;;;;;;;2.45;2.35;;;20.20;99.90;;;;;;5070882;28;20217;-73
2023/08/11 05:17:30;;;;;;;4.15;2.30;;;20.10;99.90;;;;;;5063531;28;20621;-74
2023/08/11 05:19:57;;;;;;;3.20;1.98;;;20.20;99.90;;;;;;5063295;28;20247;-73
2023/08/11 05:22:24;;;;;;;2.20;2.10;;;20.30;99.90;;;;;;5062773;28;20201;-73
2023/08/11 05:24:53;;;;;;;3.05;2.00;;;20.40;99.90;;;;;;5064273;28;20276;-73
2023/08/11 05:27:19;;;;;;;2.40;2.20;;;20.40;99.90;;;;;;5056351;28;20276;-73
2023/08/11 05:29:48;;;;;;;2.85;1.90;;;20.50;99.90;;;;;;5061076;28;20302;-74
2023/08/11 05:32:15;;;;;;;2.05;1.95;;;20.50;99.90;;;;;;5058350;28;20210;-74
2023/08/11 05:34:42;;;;;;;2.20;2.00;;;20.40;99.90;;;;;;5061049;28;20256;-74
2023/08/11 05:37:09;;;;;;;2.90;2.63;;;20.50;99.90;;;;;;5059675;28;20198;-75
2023/08/11 05:39:38;;;;;;;2.35;2.15;;;20.70;99.90;;;;;;5060244;28;20222;-73
2023/08/11 05:42:07;;;;;;;2.50;2.25;;;20.80;99.90;;;;;;5058852;28;20648;-74
2023/08/11 05:44:34;;;;;;;2.95;2.15;;;20.90;99.90;;;;;;5061198;28;20214;-75
2023/08/11 05:47:02;;;;;;;2.60;1.95;;;21.00;99.90;;;;;;5062778;28;20267;-74
2023/08/11 05:49:29;;;;;;;2.33;2.03;;;21.10;99.90;;;;;;5058335;28;20273;-75
2023/08/11 05:51:56;;;;;;;2.67;2.33;;;21.10;99.90;;;;;;5060694;28;20202;-74
2023/08/11 05:54:23;;;;;;;2.38;2.17;;;21.20;99.90;;;;;;5064014;28;20246;-74
2023/08/11 05:56:52;;;;;;;2.38;2.20;;;21.20;99.90;;;;;;5058180;28;20210;-75
2023/08/11 05:59:21;;;;;;;2.20;2.10;;;21.20;99.90;;;;;;5061214;28;20229;-74
2023/08/11 06:01:48;;;;;;;2.30;2.20;;;21.30;99.90;;;;;;5052475;28;20199;-75
2023/08/11 06:04:15;;;;;;;2.30;2.10;;;21.30;99.90;;;;;;5049235;28;20314;-74
2023/08/11 06:06:42;;;;;;;2.17;2.08;;;21.20;99.90;;;;;;5052953;28;20256;-74
2023/08/11 06:09:09;;;;;;;2.22;2.05;;;21.30;99.90;;;;;;5054827;28;20252;-75
2023/08/11 06:11:36;;;;;;;2.10;2.00;;;21.40;99.90;;;;;;5057633;28;20209;-75
2023/08/11 06:14:03;;;;;;;2.33;2.22;;;21.40;99.90;;;;;;5053288;28;20272;-75
2023/08/11 06:16:31;;;;;;;3.25;2.47;;;21.60;99.90;;;;;;5056744;28;20206;-75
2023/08/11 06:18:58;;;;;;;2.40;2.20;;;22.00;99.90;;;;;;5053518;28;20283;-75
2023/08/11 06:21:25;;;;;;;3.38;3.03;;;22.40;99.90;;;;;;5054728;28;20971;-75
2023/08/11 06:23:53;;;;;;;2.85;2.50;;;22.70;99.90;;;;;;5058633;28;20246;-75
2023/08/11 06:26:20;;;;;;;3.03;2.83;;;22.80;99.90;;;;;;5055810;28;20287;-74
2023/08/11 06:28:48;;;;;;;2.83;2.60;;;22.90;99.90;;;;;;5052908;28;20202;-74
2023/08/11 06:31:15;;;;;;;3.30;2.75;;;22.90;99.90;;;;;;5054430;28;20469;-74
2023/08/11 06:33:44;;;;;;;2.63;2.42;;;22.90;99.90;;;;;;5050651;28;20264;-76
2023/08/11 06:36:11;;;;;;;3.00;2.80;;;23.00;99.90;;;;;;5054593;28;20202;-74
2023/08/11 06:38:38;;;;;;;3.30;2.95;;;23.20;99.90;;;;;;5054416;28;20922;-75
2023/08/11 06:41:05;;;;;;;2.83;2.63;;;23.40;99.90;;;;;;5058762;28;20203;-75
2023/08/11 06:43:32;;;;;;;3.40;3.00;;;23.50;99.90;;;;;;5058121;28;20774;-75
2023/08/11 06:45:59;;;;;;;3.83;2.72;;;23.60;99.90;;;;;;5056369;28;21733;-75
2023/08/11 06:48:27;;;;;;;3.55;2.75;;;23.80;99.90;;;;;;5057075;28;20226;-75
2023/08/11 06:50:57;;;;;;;3.88;3.25;;;24.00;99.90;;;;;;5059169;28;20194;-74
2023/08/11 06:53:24;;;;;;;2.95;2.67;;;23.90;99.90;;;;;;5055588;28;20209;-76
2023/08/11 06:55:51;;;;;;;3.10;2.83;;;23.80;99.90;;;;;;5058288;28;20234;-76
2023/08/11 06:58:18;;;;;;;2.60;2.40;;;23.80;99.90;;;;;;5072061;28;20198;-76
2023/08/11 07:00:45;;;;;;;3.88;2.90;;;23.90;99.90;;;;;;5082740;28;20289;-78
2023/08/11 07:03:12;;;;;;;2.55;2.35;;;23.90;99.90;;;;;;5082541;28;20236;-76
2023/08/11 07:05:39;;;;;;;2.95;2.60;;;24.00;99.90;;;;;;5082476;28;20226;-76
2023/08/11 07:08:07;;;;;;;3.80;2.60;;;24.20;99.90;;;;;;5076238;28;20583;-75
2023/08/11 07:10:34;;;;;;;2.70;2.50;;;24.40;99.90;;;;;;5081470;28;20199;-75
2023/08/11 07:13:01;;;;;;;2.97;2.78;;;24.60;99.90;;;;;;5060724;28;20238;-75
2023/08/11 07:15:28;;;;;;;2.70;2.50;;;24.80;99.90;;;;;;5060162;28;20252;-74
2023/08/11 07:17:56;;;;;;;2.83;2.45;;;24.80;99.90;;;;;;5055960;28;20785;-76
2023/08/11 07:20:23;;;;;;;3.22;2.72;;;24.70;99.90;;;;;;5052930;28;20401;-76
2023/08/11 07:22:50;;;;;;;3.13;2.80;;;24.60;99.90;;;;;;5056186;28;20373;-76
2023/08/11 07:25:18;;;;;;;3.50;2.22;;;24.50;99.90;;;;;;5057864;28;20226;-75
2023/08/11 07:27:45;;;;;;;2.75;2.50;;;24.50;99.90;;;;;;5055685;28;20198;-75
2023/08/11 07:30:12;;;;;;;2.50;2.30;;;24.70;99.90;;;;;;5055908;28;20198;-75
2023/08/11 07:32:39;;;;;;;2.33;2.22;;;24.80;99.90;;;;;;5054495;28;20279;-76
2023/08/11 07:35:07;;;;;;;2.85;2.40;;;24.80;99.90;;;;;;5052976;28;20267;-75
2023/08/11 07:37:34;;;;;;;2.85;2.45;;;24.80;99.90;;;;;;5054877;28;20191;-75
2023/08/11 07:40:01;;;;;;;2.60;2.40;;;24.80;99.90;;;;;;5054444;28;20755;-75
2023/08/11 07:42:29;;;;;;;5.05;2.47;;;24.80;99.90;;;;;;5056819;28;20206;-74
2023/08/11 07:44:56;;;;;;;4.25;2.50;;;24.90;99.90;;;;;;5051849;28;20305;-74
2023/08/11 07:47:23;;;;;;;2.40;2.30;;;25.20;99.90;;;;;;5057212;28;20210;-75
2023/08/11 07:49:50;;;;;;;2.70;2.45;;;25.40;99.90;;;;;;5054285;28;20278;-75
2023/08/11 07:52:17;;;;;;;2.40;2.20;;;25.70;99.90;;;;;;5054737;28;20218;-76
2023/08/11 07:54:44;;;;;;;3.28;2.70;;;26.00;99.90;;;;;;5055913;28;20295;-77
2023/08/11 07:57:11;;;;;;;3.00;2.63;;;26.10;99.90;;;;;;5055024;28;20720;-76
2023/08/11 07:59:40;;;;;;;3.15;2.85;;;26.20;99.90;;;;;;5055357;28;20202;-76
2023/08/11 08:02:07;;;;;;;3.00;2.38;;;26.20;99.90;;;;;;5057333;28;20994;-77
2023/08/11 08:04:34;;;;;;;3.42;2.38;;;26.20;99.90;;;;;;5055056;28;20284;-78
2023/08/11 08:07:01;;;;;;;2.80;2.47;;;26.00;99.90;;;;;;5055114;28;20248;-79
2023/08/11 08:09:28;;;;;;;2.70;2.50;;;26.00;99.90;;;;;;5054452;28;20285;-77
2023/08/11 08:11:55;;;;;;;2.75;2.50;;;26.20;99.90;;;;;;5056036;28;20829;-77
2023/08/11 08:14:22;;;;;;;2.90;2.70;;;26.20;99.90;;;;;;5050816;28;20319;-76
2023/08/11 08:16:51;;;;;;;2.72;2.53;;;26.20;99.90;;;;;;5054552;28;20658;-77
2023/08/11 08:19:18;;;;;;;2.70;2.50;;;26.40;99.90;;;;;;5052517;28;20248;-77
2023/08/11 08:21:46;;;;;;;3.40;2.55;;;26.30;99.90;;;;;;5053470;28;20207;-78
2023/08/11 08:24:15;;;;;;;2.88;2.67;;;26.40;99.90;;;;;;5050532;28;21074;-79
2023/08/11 08:26:43;;;;;;;3.95;2.50;;;26.40;99.90;;;;;;5054536;28;20206;-77
2023/08/11 08:29:11;;;;;;;2.97;2.63;;;26.50;99.90;;;;;;5054301;28;20256;-79
2023/08/11 08:31:38;;;;;;;2.92;2.72;;;26.50;99.90;;;;;;5053239;28;20206;-77
2023/08/11 08:34:06;;;;;;;3.03;2.47;;;26.60;99.90;;;;;;5051476;28;20283;-74
2023/08/11 08:36:33;;;;;;;2.45;2.25;;;26.60;99.90;;;;;;5055190;28;20259;-75
2023/08/11 08:39:00;;;;;;;3.03;2.83;;;26.60;99.90;;;;;;5056004;28;20225;-76
2023/08/11 08:41:30;;;;;;;3.10;2.83;;;26.70;99.90;;;;;;5056925;28;20932;-76
2023/08/11 08:43:57;;;;;;;2.72;2.50;;;26.60;99.90;;;;;;5053022;28;20398;-75
2023/08/11 08:46:28;;;;;;;3.47;2.38;;;26.60;99.90;;;;;;5055214;28;20297;-76
2023/08/11 08:49:02;;;;;;;2.80;2.60;;;26.70;99.90;;;;;;5052922;28;20209;-76
2023/08/11 08:51:31;;;;;;;3.92;2.47;;;26.90;99.90;;;;;;5055639;28;20302;-76
2023/08/11 08:53:58;;;;;;;3.55;2.30;;;27.10;99.90;;;;;;5053229;28;20915;-76
2023/08/11 08:56:26;;;;;;;2.80;2.60;;;27.00;99.90;;;;;;5053594;28;20225;-76
2023/08/11 08:58:53;;;;;;;2.97;2.67;;;27.10;99.90;;;;;;5051433;28;20294;-76
2023/08/11 09:01:20;;;;;;;2.40;2.20;;;27.30;99.90;;;;;;5053588;28;20669;-77
2023/08/11 09:03:47;;;;;;;2.60;2.40;;;27.80;99.90;;;;;;5053974;28;20280;-75
2023/08/11 09:06:16;;;;;;;2.70;2.20;;;28.30;99.90;;;;;;5065370;28;20206;-77
2023/08/11 09:08:45;;;;;;;2.50;2.13;;;28.40;99.90;;;;;;5059469;28;20441;-75
2023/08/11 09:11:12;;;;;;;3.22;2.22;;;28.30;99.90;;;;;;5050202;28;20290;-75
2023/08/11 09:13:39;;;;;;;2.55;2.35;;;28.20;99.90;;;;;;5051971;28;20206;-75
2023/08/11 09:16:06;;;;;;;2.80;2.60;;;28.20;99.90;;;;;;5056245;28;20202;-76
2023/08/11 09:18:34;;;;;;;2.70;2.50;;;27.90;99.90;;;;;;5048252;28;20302;-76
2023/08/11 09:21:02;;;;;;;3.03;2.83;;;27.90;99.90;;;;;;5052147;28;20209;-75
2023/08/11 09:23:29;;;;;;;3.13;2.30;;;27.90;99.90;;;;;;5049021;28;20195;-75
2023/08/11 09:25:57;;;;;;;3.45;2.97;;;27.80;99.90;;;;;;5049465;28;20305;-75
2023/08/11 09:28:24;;;;;;;2.83;2.63;;;27.70;99.90;;;;;;5052284;28;20849;-75
2023/08/11 09:30:51;;;;;;;4.00;2.53;;;27.80;99.90;;;;;;5054833;28;20206;-77
2023/08/11 09:33:18;;;;;;;2.40;2.30;;;28.10;99.90;;;;;;5050747;28;20293;-76
2023/08/11 09:35:45;;;;;;;2.38;2.17;;;28.50;99.90;;;;;;5049516;28;21131;-74
2023/08/11 09:38:13;;;;;;;5.15;2.00;;;28.70;99.90;;;;;;5049659;28;20205;-76
2023/08/11 09:40:41;;;;;;;3.97;2.40;;;28.70;99.90;;;;;;5054785;28;20214;-76
2023/08/11 09:43:11;;;;;;;2.75;2.45;;;28.80;99.90;;;;;;5050960;28;20344;-75
2023/08/11 09:45:39;;;;;;;3.67;2.50;;;28.90;99.90;;;;;;5055127;28;20219;-75
2023/08/11 09:48:06;;;;;;;3.55;2.60;;;28.80;99.90;;;;;;5055872;28;20757;-76
2023/08/11 09:50:36;;;;;;;2.70;2.50;;;28.50;99.90;;;;;;5054725;28;20213;-75
2023/08/11 09:53:06;;;;;;;2.53;2.33;;;28.30;99.90;;;;;;5052753;28;20424;-75
2023/08/11 09:55:36;;;;;;;2.85;2.65;;;28.30;99.90;;;;;;5054830;28;20226;-75
2023/08/11 09:58:04;;;;;;;2.90;2.20;;;28.40;99.90;;;;;;5057310;28;20194;-75
2023/08/11 10:00:33;;;;;;;4.28;2.67;;;28.70;99.90;;;;;;5057203;28;20203;-75
2023/08/11 10:03:06;;;;;;;2.92;2.42;;;28.90;99.90;;;;;;5053041;28;20568;-74
2023/08/11 10:05:37;;;;;;;4.03;2.63;;;28.90;99.90;;;;;;5048449;28;20304;-76
2023/08/11 10:08:06;;;;;;;3.10;2.63;;;28.70;99.90;;;;;;5052813;28;20848;-77
2023/08/11 10:10:35;;;;;;;4.57;2.45;;;28.60;99.90;;;;;;5055701;28;20190;-76
2023/08/11 10:13:08;;;;;;;3.00;2.72;;;28.60;99.90;;;;;;5049714;28;21010;-78
2023/08/11 10:15:37;;;;;;;2.60;2.40;;;28.60;99.90;;;;;;5053309;28;20458;-78
2023/08/11 10:18:06;;;;;;;2.00;1.90;;;28.70;99.90;;;;;;5050293;28;20319;-78
2023/08/11 10:20:33;;;;;;;2.58;2.38;;;28.90;99.90;;;;;;5055767;28;20234;-78
2023/08/11 10:23:02;;;;;;;2.80;2.60;;;29.10;99.90;;;;;;5051629;28;20238;-75
2023/08/11 10:25:29;;;;;;;2.70;2.50;;;29.30;99.90;;;;;;5044716;28;20297;-77
2023/08/11 10:27:58;;;;;;;2.42;2.22;;;29.40;99.90;;;;;;5047107;28;20198;-76
2023/08/11 10:30:29;;;;;;;3.72;2.80;;;29.40;99.90;;;;;;5051731;28;20216;-76
2023/08/11 10:33:06;;;;;;;3.10;2.88;;;29.50;99.90;;;;;;5049707;28;20202;-76
2023/08/11 10:35:35;;;;;;;3.00;2.80;;;29.30;99.90;;;;;;5051400;28;20747;-77
2023/08/11 10:38:05;;;;;;;2.58;2.38;;;29.30;99.90;;;;;;5052468;28;20729;-76
2023/08/11 10:40:36;;;;;;;2.97;2.70;;;29.30;99.90;;;;;;5052504;28;20198;-75
2023/08/11 10:43:04;;;;;;;2.83;2.35;;;29.30;99.90;;;;;;5048336;28;20655;-76
2023/08/11 10:45:33;;;;;;;2.58;2.38;;;29.10;99.90;;;;;;5052648;28;20219;-77
2023/08/11 10:48:00;;;;;;;3.55;2.70;;;29.50;99.90;;;;;;5056068;28;20321;-78
2023/08/11 10:50:30;;;;;;;4.93;2.35;;;29.60;99.90;;;;;;5052777;28;20778;-79
2023/08/11 10:53:06;;;;;;;2.85;2.42;;;29.50;99.90;;;;;;5051568;28;20282;-77
2023/08/11 10:55:34;;;;;;;2.38;2.17;;;29.50;99.90;;;;;;5053585;28;20743;-77
2023/08/11 10:58:12;;;;;;;2.63;2.42;;;29.60;99.90;;;;;;5054175;28;20222;-74
2023/08/11 11:00:40;;;;;;;3.00;2.30;;;29.80;99.90;;;;;;5051901;28;20255;-77
2023/08/11 11:03:07;;;;;;;2.45;2.20;;;29.80;99.90;;;;;;5051424;28;20205;-77
2023/08/11 11:05:35;;;;;;;2.25;2.10;;;29.70;99.90;;;;;;5054369;28;20226;-75
2023/08/11 11:08:02;;;;;;;2.05;1.95;;;29.70;99.90;;;;;;5051896;28;20297;-78
2023/08/11 11:10:30;;;;;;;1.92;1.83;;;29.90;99.90;;;;;;5053055;28;20207;-76
2023/08/11 11:12:56;;;;;;;2.08;1.90;;;30.00;99.90;;;;;;5051034;28;20342;-74
2023/08/11 11:15:23;;;;;;;2.28;2.08;;;29.70;99.90;;;;;;5052455;28;20225;-77
2023/08/11 11:17:51;;;;;;;2.08;1.98;;;29.70;99.90;;;;;;5051584;28;20295;-77
2023/08/11 11:20:19;;;;;;;2.50;2.30;;;29.70;99.90;;;;;;5054669;28;20293;-77
2023/08/11 11:22:50;;;;;;;2.00;1.90;;;29.70;99.90;;;;;;5051077;28;20289;-77
2023/08/11 11:25:18;;;;;;;2.58;2.33;;;29.70;99.90;;;;;;5050267;28;20228;-77
2023/08/11 11:27:45;;;;;;;2.40;2.20;;;29.70;99.90;;;;;;5051840;28;20260;-76
2023/08/11 11:30:13;;;;;;;2.38;2.17;;;29.70;99.90;;;;;;5053290;28;20213;-75
2023/08/11 11:32:41;;;;;;;2.20;2.10;;;29.60;99.90;;;;;;5046303;28;20325;-76
2023/08/11 11:35:09;;;;;;;2.33;2.13;;;29.80;99.90;;;;;;5048704;28;20263;-75
2023/08/11 11:37:37;;;;;;;2.45;2.25;;;29.80;99.90;;;;;;5050934;28;21008;-76
2023/08/11 11:40:07;;;;;;;1.95;1.85;;;30.00;99.90;;;;;;5051989;28;20194;-75
2023/08/11 11:42:36;;;;;;;2.13;2.03;;;30.20;99.90;;;;;;5056569;28;20207;-78
2023/08/11 11:45:04;;;;;;;2.95;1.80;;;30.50;99.90;;;;;;5057063;28;20222;-78
2023/08/11 11:47:32;;;;;;;2.00;1.90;;;30.50;99.90;;;;;;5052878;28;20289;-76
2023/08/11 11:50:00;;;;;;;3.00;2.50;;;30.50;99.90;;;;;;5054977;28;20230;-75
2023/08/11 11:52:28;;;;;;;2.30;2.10;;;30.40;99.90;;;;;;5054088;28;20234;-75
2023/08/11 11:54:56;;;;;;;2.40;2.20;;;30.40;99.90;;;;;;5053884;28;20214;-74
2023/08/11 11:57:25;;;;;;;5.47;2.15;;;30.40;99.90;;;;;;5051829;28;20308;-74
2023/08/11 11:59:52;;;;;;;2.03;1.92;;;30.50;99.90;;;;;;5052814;28;20784;-75
2023/08/11 12:02:19;;;;;;;2.20;1.98;;;30.70;99.90;;;;;;5052449;28;20822;-75
2023/08/11 12:04:47;;;;;;;1.90;1.80;;;30.80;99.90;;;;;;5048609;28;20249;-73
2023/08/11 12:07:29;;;;;;;2.17;1.95;;;30.80;99.90;;;;;;5047087;28;20702;-74
2023/08/11 12:09:56;;;;;;;2.88;1.92;;;30.90;99.90;;;;;;5054838;28;20289;-74
2023/08/11 12:12:26;;;;;;;1.83;1.73;;;31.10;99.90;;;;;;5054027;28;20297;-72
2023/08/11 12:14:54;;;;;;;2.47;1.80;;;31.10;99.90;;;;;;5054755;28;20222;-73
2023/08/11 12:17:22;;;;;;;2.20;2.00;;;31.20;99.90;;;;;;5051228;28;20206;-71
2023/08/11 12:19:54;;;;;;;2.42;1.90;;;31.10;99.90;;;;;;5048989;28;20198;-73
2023/08/11 12:22:21;;;;;;;1.90;1.80;;;31.00;99.90;;;;;;5054803;28;20202;-79
2023/08/11 12:24:48;;;;;;;2.15;1.60;;;31.00;99.90;;;;;;5052169;28;20227;-74
2023/08/11 12:27:15;;;;;;;2.13;1.90;;;31.00;99.90;;;;;;5054141;28;20363;-78
2023/08/11 12:29:43;;;;;;;2.35;2.15;;;31.00;99.90;;;;;;5056464;28;20244;-77
2023/08/11 12:32:10;;;;;;;2.50;2.30;;;31.10;99.90;;;;;;5053176;28;20226;-73
2023/08/11 12:34:37;;;;;;;2.58;2.38;;;31.10;99.90;;;;;;5051484;28;20317;-72
2023/08/11 12:37:04;;;;;;;3.25;1.98;;;31.00;99.90;;;;;;5052373;28;20632;-75
2023/08/11 12:39:31;;;;;;;2.55;1.80;;;31.10;99.90;;;;;;5056984;28;20280;-75
2023/08/11 12:41:58;;;;;;;2.20;2.00;;;31.30;99.90;;;;;;5056682;28;20279;-75
2023/08/11 12:44:26;;;;;;;2.50;2.30;;;31.40;99.90;;;;;;5053178;28;20849;-74
2023/08/11 12:46:54;;;;;;;2.95;2.03;;;31.10;99.90;;;;;;5055529;28;20306;-73
2023/08/11 12:49:21;;;;;;;2.75;2.15;;;31.10;99.90;;;;;;5052684;28;20194;-75
2023/08/11 12:51:51;;;;;;;3.15;2.00;;;31.20;99.90;;;;;;5054712;28;20202;-75